sensor_id;sensor_type;location;lat;lon;timestamp;P1;P2;P0
68841;PMS5003;55849;48.482;2.332;2023-02-28T00:01:05;13.25;9.00;6.75
68841;PMS5003;55849;48.482;2.332;2023-02-28T00:04:06;12.00;7.50;7.00
68841;PMS5003;55849;48.482;2.332;2023-02-28T00:07:09;14.00;10.50;7.00
68841;PMS5003;55849;48.482;2.332;2023-02-28T00:10:11;12.50;12.25;9.00
68841;PMS5003;55849;48.482;2.332;2023-02-28T00:13:14;12.75;11.00;7.50
68841;PMS5003;55849;48.482;2.332;2023-02-28T00:16:18;13.00;9.00;6.00
68841;PMS5003;55849;48.482;2.332;2023-02-28T00:19:22;11.75;10.00;7.00
68841;PMS5003;55849;48.482;2.332;2023-02-28T00:22:24;16.50;12.75;8.00
68841;PMS5003;55849;48.482;2.332;2023-02-28T00:25:26;10.00;10.00;7.00
68841;PMS5003;55849;48.482;2.332;2023-02-28T00:28:27;13.75;10.00;7.00
68841;PMS5003;55849;48.482;2.332;2023-02-28T00:31:30;13.00;12.00;7.00
68841;PMS5003;55849;48.482;2.332;2023-02-28T00:34:32;13.00;11.50;6.00
68841;PMS5003;55849;48.482;2.332;2023-02-28T00:37:37;16.00;12.75;9.00
68841;PMS5003;55849;48.482;2.332;2023-02-28T00:40:39;13.00;9.00;6.25
68841;PMS5003;55849;48.482;2.332;2023-02-28T00:43:41;7.00;5.00;3.00
68841;PMS5003;55849;48.482;2.332;2023-02-28T00:46:44;12.50;10.25;7.00
68841;PMS5003;55849;48.482;2.332;2023-02-28T00:49:46;12.50;10.50;7.50
68841;PMS5003;55849;48.482;2.332;2023-02-28T00:52:47;16.00;10.00;7.50
68841;PMS5003;55849;48.482;2.332;2023-02-28T00:55:49;13.50;10.00;7.25
68841;PMS5003;55849;48.482;2.332;2023-02-28T00:58:51;15.75;15.50;10.50
68841;PMS5003;55849;48.482;2.332;2023-02-28T01:01:54;11.00;11.00;9.00
68841;PMS5003;55849;48.482;2.332;2023-02-28T01:04:55;12.75;10.00;8.50
68841;PMS5003;55849;48.482;2.332;2023-02-28T01:07:57;15.50;15.00;9.25
68841;PMS5003;55849;48.482;2.332;2023-02-28T01:11:06;14.50;12.00;8.00
68841;PMS5003;55849;48.482;2.332;2023-02-28T01:14:09;13.50;10.00;7.00
68841;PMS5003;55849;48.482;2.332;2023-02-28T01:17:15;10.50;7.25;3.50
68841;PMS5003;55849;48.482;2.332;2023-02-28T01:20:17;11.50;9.75;8.50
68841;PMS5003;55849;48.482;2.332;2023-02-28T01:23:18;15.00;9.50;6.25
68841;PMS5003;55849;48.482;2.332;2023-02-28T01:26:21;6.50;5.00;3.50
68841;PMS5003;55849;48.482;2.332;2023-02-28T01:29:23;12.75;10.50;8.00
68841;PMS5003;55849;48.482;2.332;2023-02-28T01:32:26;15.75;11.50;6.50
68841;PMS5003;55849;48.482;2.332;2023-02-28T01:35:28;11.75;7.75;6.00
68841;PMS5003;55849;48.482;2.332;2023-02-28T01:38:33;6.50;6.50;5.00
68841;PMS5003;55849;48.482;2.332;2023-02-28T01:41:35;9.25;8.00;4.00
68841;PMS5003;55849;48.482;2.332;2023-02-28T01:44:57;12.75;8.50;5.50
68841;PMS5003;55849;48.482;2.332;2023-02-28T01:48:07;11.75;8.00;5.00
68841;PMS5003;55849;48.482;2.332;2023-02-28T01:51:10;13.25;8.00;6.50
68841;PMS5003;55849;48.482;2.332;2023-02-28T01:54:15;8.50;8.50;4.50
68841;PMS5003;55849;48.482;2.332;2023-02-28T01:57:20;11.00;7.00;3.75
68841;PMS5003;55849;48.482;2.332;2023-02-28T02:00:26;9.00;6.00;4.00
68841;PMS5003;55849;48.482;2.332;2023-02-28T02:03:30;6.75;6.75;5.00
68841;PMS5003;55849;48.482;2.332;2023-02-28T02:06:33;9.75;9.00;7.00
68841;PMS5003;55849;48.482;2.332;2023-02-28T02:09:38;13.50;6.75;4.00
68841;PMS5003;55849;48.482;2.332;2023-02-28T02:16:10;6.25;5.75;4.00
68841;PMS5003;55849;48.482;2.332;2023-02-28T02:19:28;9.00;8.00;5.00
68841;PMS5003;55849;48.482;2.332;2023-02-28T02:23:18;6.50;6.50;3.75
68841;PMS5003;55849;48.482;2.332;2023-02-28T02:26:51;8.00;8.00;6.00
68841;PMS5003;55849;48.482;2.332;2023-02-28T02:30:29;5.25;3.25;3.00
68841;PMS5003;55849;48.482;2.332;2023-02-28T02:37:21;7.50;6.75;3.50
68841;PMS5003;55849;48.482;2.332;2023-02-28T02:40:32;7.00;7.00;3.00
68841;PMS5003;55849;48.482;2.332;2023-02-28T02:43:40;6.75;5.00;3.00
68841;PMS5003;55849;48.482;2.332;2023-02-28T02:46:50;13.25;4.50;4.00
68841;PMS5003;55849;48.482;2.332;2023-02-28T02:49:57;6.75;6.75;3.75
68841;PMS5003;55849;48.482;2.332;2023-02-28T02:53:05;6.00;6.00;4.50
68841;PMS5003;55849;48.482;2.332;2023-02-28T02:56:10;6.00;3.75;3.00
68841;PMS5003;55849;48.482;2.332;2023-02-28T02:59:13;6.00;6.00;4.00
68841;PMS5003;55849;48.482;2.332;2023-02-28T03:02:21;7.50;7.50;5.50
68841;PMS5003;55849;48.482;2.332;2023-02-28T03:05:27;9.25;6.00;3.50
68841;PMS5003;55849;48.482;2.332;2023-02-28T03:08:34;6.00;6.00;4.00
68841;PMS5003;55849;48.482;2.332;2023-02-28T03:11:37;7.00;6.50;4.00
68841;PMS5003;55849;48.482;2.332;2023-02-28T03:14:41;9.25;4.00;4.00
68841;PMS5003;55849;48.482;2.332;2023-02-28T03:17:56;11.50;7.00;4.50
68841;PMS5003;55849;48.482;2.332;2023-02-28T03:21:09;3.00;3.00;3.00
68841;PMS5003;55849;48.482;2.332;2023-02-28T03:24:21;7.50;7.00;4.00
68841;PMS5003;55849;48.482;2.332;2023-02-28T03:27:34;7.50;6.25;4.00
68841;PMS5003;55849;48.482;2.332;2023-02-28T03:30:41;6.75;5.50;3.25
68841;PMS5003;55849;48.482;2.332;2023-02-28T03:33:55;8.50;8.50;4.00
68841;PMS5003;55849;48.482;2.332;2023-02-28T03:37:02;5.00;4.00;2.50
68841;PMS5003;55849;48.482;2.332;2023-02-28T03:40:09;8.00;6.25;3.50
68841;PMS5003;55849;48.482;2.332;2023-02-28T03:43:15;10.75;6.00;3.75
68841;PMS5003;55849;48.482;2.332;2023-02-28T03:46:23;7.00;5.00;3.75
68841;PMS5003;55849;48.482;2.332;2023-02-28T03:49:28;12.75;7.50;4.50
68841;PMS5003;55849;48.482;2.332;2023-02-28T03:52:36;6.75;4.50;3.75
68841;PMS5003;55849;48.482;2.332;2023-02-28T03:55:42;6.75;4.00;3.00
68841;PMS5003;55849;48.482;2.332;2023-02-28T03:58:47;6.25;6.00;4.00
68841;PMS5003;55849;48.482;2.332;2023-02-28T04:01:54;6.00;4.00;3.00
68841;PMS5003;55849;48.482;2.332;2023-02-28T04:04:59;9.00;6.50;4.00
68841;PMS5003;55849;48.482;2.332;2023-02-28T04:08:05;6.25;6.00;4.00
68841;PMS5003;55849;48.482;2.332;2023-02-28T04:11:11;7.00;7.00;4.00
68841;PMS5003;55849;48.482;2.332;2023-02-28T04:14:19;7.00;7.00;4.00
68841;PMS5003;55849;48.482;2.332;2023-02-28T04:17:21;12.50;6.75;4.00
68841;PMS5003;55849;48.482;2.332;2023-02-28T04:20:22;6.75;5.00;3.00
68841;PMS5003;55849;48.482;2.332;2023-02-28T04:23:25;8.50;6.00;3.25
68841;PMS5003;55849;48.482;2.332;2023-02-28T04:26:28;7.50;6.25;3.25
68841;PMS5003;55849;48.482;2.332;2023-02-28T04:29:31;4.00;3.25;3.00
68841;PMS5003;55849;48.482;2.332;2023-02-28T04:32:33;6.00;6.00;5.00
68841;PMS5003;55849;48.482;2.332;2023-02-28T04:35:34;6.50;4.00;3.00
68841;PMS5003;55849;48.482;2.332;2023-02-28T04:38:38;5.50;2.50;2.50
68841;PMS5003;55849;48.482;2.332;2023-02-28T04:41:40;6.25;4.00;3.00
68841;PMS5003;55849;48.482;2.332;2023-02-28T04:44:41;9.00;6.00;4.00
68841;PMS5003;55849;48.482;2.332;2023-02-28T04:47:43;9.00;1.50;1.50
68841;PMS5003;55849;48.482;2.332;2023-02-28T04:50:45;6.00;6.00;4.00
68841;PMS5003;55849;48.482;2.332;2023-02-28T04:53:48;10.25;4.00;3.50
68841;PMS5003;55849;48.482;2.332;2023-02-28T04:56:50;3.25;0.25;0.00
68841;PMS5003;55849;48.482;2.332;2023-02-28T04:59:51;3.00;3.00;3.00
68841;PMS5003;55849;48.482;2.332;2023-02-28T05:02:53;4.00;4.00;2.50
68841;PMS5003;55849;48.482;2.332;2023-02-28T05:05:54;6.75;4.00;2.50
68841;PMS5003;55849;48.482;2.332;2023-02-28T05:08:57;9.00;6.50;4.50
68841;PMS5003;55849;48.482;2.332;2023-02-28T05:11:59;9.00;6.00;5.00
68841;PMS5003;55849;48.482;2.332;2023-02-28T05:15:01;3.75;3.75;3.00
68841;PMS5003;55849;48.482;2.332;2023-02-28T05:18:04;10.00;6.00;4.00
68841;PMS5003;55849;48.482;2.332;2023-02-28T05:21:12;6.50;4.50;2.50
68841;PMS5003;55849;48.482;2.332;2023-02-28T05:24:29;4.50;3.25;3.00
68841;PMS5003;55849;48.482;2.332;2023-02-28T05:27:30;5.50;5.50;3.00
68841;PMS5003;55849;48.482;2.332;2023-02-28T05:30:32;8.00;4.00;3.00
68841;PMS5003;55849;48.482;2.332;2023-02-28T05:33:34;4.50;4.50;3.00
68841;PMS5003;55849;48.482;2.332;2023-02-28T05:36:36;6.50;4.50;3.00
68841;PMS5003;55849;48.482;2.332;2023-02-28T05:39:39;3.25;3.25;1.00
68841;PMS5003;55849;48.482;2.332;2023-02-28T05:42:41;7.75;6.00;4.00
68841;PMS5003;55849;48.482;2.332;2023-02-28T05:45:43;8.00;5.00;4.00
68841;PMS5003;55849;48.482;2.332;2023-02-28T05:48:45;7.00;4.00;1.00
68841;PMS5003;55849;48.482;2.332;2023-02-28T05:51:48;3.75;3.00;1.00
68841;PMS5003;55849;48.482;2.332;2023-02-28T05:54:51;4.00;4.00;2.50
68841;PMS5003;55849;48.482;2.332;2023-02-28T05:57:53;3.25;3.25;3.00
68841;PMS5003;55849;48.482;2.332;2023-02-28T06:00:54;4.00;3.00;2.00
68841;PMS5003;55849;48.482;2.332;2023-02-28T06:03:57;5.50;4.00;3.00
68841;PMS5003;55849;48.482;2.332;2023-02-28T06:06:59;3.50;3.50;1.00
68841;PMS5003;55849;48.482;2.332;2023-02-28T06:10:03;5.50;4.00;2.50
68841;PMS5003;55849;48.482;2.332;2023-02-28T06:13:05;0.00;0.00;0.00
68841;PMS5003;55849;48.482;2.332;2023-02-28T06:16:08;4.50;3.00;2.50
68841;PMS5003;55849;48.482;2.332;2023-02-28T06:19:11;3.00;3.00;1.00
68841;PMS5003;55849;48.482;2.332;2023-02-28T06:22:13;4.00;4.00;3.00
68841;PMS5003;55849;48.482;2.332;2023-02-28T06:25:17;4.00;4.00;1.50
68841;PMS5003;55849;48.482;2.332;2023-02-28T06:28:19;3.75;3.75;3.00
68841;PMS5003;55849;48.482;2.332;2023-02-28T06:31:21;4.00;4.00;1.00
68841;PMS5003;55849;48.482;2.332;2023-02-28T06:34:24;3.00;3.00;1.00
68841;PMS5003;55849;48.482;2.332;2023-02-28T06:37:26;4.50;4.50;3.00
68841;PMS5003;55849;48.482;2.332;2023-02-28T06:40:29;8.00;3.00;2.50
68841;PMS5003;55849;48.482;2.332;2023-02-28T06:43:35;4.25;3.00;2.50
68841;PMS5003;55849;48.482;2.332;2023-02-28T06:46:38;4.50;3.00;1.00
68841;PMS5003;55849;48.482;2.332;2023-02-28T06:49:40;4.00;4.00;2.50
68841;PMS5003;55849;48.482;2.332;2023-02-28T06:52:41;5.50;5.50;2.50
68841;PMS5003;55849;48.482;2.332;2023-02-28T06:55:44;4.25;3.00;2.00
68841;PMS5003;55849;48.482;2.332;2023-02-28T06:58:46;4.50;4.50;2.00
68841;PMS5003;55849;48.482;2.332;2023-02-28T07:01:48;4.00;3.00;1.00
68841;PMS5003;55849;48.482;2.332;2023-02-28T07:04:50;4.50;4.50;1.00
68841;PMS5003;55849;48.482;2.332;2023-02-28T07:07:52;7.75;4.00;3.00
68841;PMS5003;55849;48.482;2.332;2023-02-28T07:10:55;3.00;3.00;1.00
68841;PMS5003;55849;48.482;2.332;2023-02-28T07:13:57;3.50;3.50;1.00
68841;PMS5003;55849;48.482;2.332;2023-02-28T07:16:59;4.50;2.50;1.00
68841;PMS5003;55849;48.482;2.332;2023-02-28T07:20:00;6.00;3.75;3.00
68841;PMS5003;55849;48.482;2.332;2023-02-28T07:23:04;6.25;4.00;3.00
68841;PMS5003;55849;48.482;2.332;2023-02-28T07:26:07;6.50;4.50;3.00
68841;PMS5003;55849;48.482;2.332;2023-02-28T07:29:14;6.00;4.00;3.00
68841;PMS5003;55849;48.482;2.332;2023-02-28T07:32:16;6.75;3.25;3.00
68841;PMS5003;55849;48.482;2.332;2023-02-28T07:35:18;6.00;6.00;3.00
68841;PMS5003;55849;48.482;2.332;2023-02-28T07:38:20;5.50;5.00;3.75
68841;PMS5003;55849;48.482;2.332;2023-02-28T07:41:23;6.25;6.25;5.00
68841;PMS5003;55849;48.482;2.332;2023-02-28T07:44:27;11.50;7.00;5.50
68841;PMS5003;55849;48.482;2.332;2023-02-28T07:47:29;14.00;7.00;6.00
68841;PMS5003;55849;48.482;2.332;2023-02-28T07:50:31;10.50;8.50;4.00
68841;PMS5003;55849;48.482;2.332;2023-02-28T07:53:34;6.50;6.00;3.75
68841;PMS5003;55849;48.482;2.332;2023-02-28T07:56:37;8.00;8.00;4.50
68841;PMS5003;55849;48.482;2.332;2023-02-28T07:59:39;13.00;11.00;6.75
68841;PMS5003;55849;48.482;2.332;2023-02-28T08:02:40;10.50;8.50;6.00
68841;PMS5003;55849;48.482;2.332;2023-02-28T08:05:42;6.00;6.00;4.00
68841;PMS5003;55849;48.482;2.332;2023-02-28T08:08:44;9.25;8.50;6.00
68841;PMS5003;55849;48.482;2.332;2023-02-28T08:11:47;7.00;7.00;4.50
68841;PMS5003;55849;48.482;2.332;2023-02-28T08:14:49;14.00;9.00;3.50
68841;PMS5003;55849;48.482;2.332;2023-02-28T08:17:50;9.00;6.25;3.25
68841;PMS5003;55849;48.482;2.332;2023-02-28T08:20:52;6.25;6.25;3.00
68841;PMS5003;55849;48.482;2.332;2023-02-28T08:23:54;7.50;6.75;4.50
68841;PMS5003;55849;48.482;2.332;2023-02-28T08:26:58;10.00;10.00;6.00
68841;PMS5003;55849;48.482;2.332;2023-02-28T08:29:59;7.50;6.25;4.00
68841;PMS5003;55849;48.482;2.332;2023-02-28T08:33:01;11.75;6.00;4.00
68841;PMS5003;55849;48.482;2.332;2023-02-28T08:36:03;7.00;3.00;3.00
68841;PMS5003;55849;48.482;2.332;2023-02-28T08:39:05;10.00;6.00;4.00
68841;PMS5003;55849;48.482;2.332;2023-02-28T08:42:09;6.00;6.00;3.50
68841;PMS5003;55849;48.482;2.332;2023-02-28T08:45:10;6.00;4.00;3.25
68841;PMS5003;55849;48.482;2.332;2023-02-28T08:48:12;6.75;4.50;3.50
68841;PMS5003;55849;48.482;2.332;2023-02-28T08:51:15;9.00;6.00;4.00
68841;PMS5003;55849;48.482;2.332;2023-02-28T08:54:22;6.00;6.00;3.00
68841;PMS5003;55849;48.482;2.332;2023-02-28T08:57:25;11.00;8.75;4.50
68841;PMS5003;55849;48.482;2.332;2023-02-28T09:00:27;7.25;7.25;4.50
68841;PMS5003;55849;48.482;2.332;2023-02-28T09:03:29;6.50;6.50;6.00
68841;PMS5003;55849;48.482;2.332;2023-02-28T09:06:31;7.00;7.00;4.00
68841;PMS5003;55849;48.482;2.332;2023-02-28T09:09:33;3.00;3.00;2.00
68841;PMS5003;55849;48.482;2.332;2023-02-28T09:12:36;4.00;4.00;3.00
68841;PMS5003;55849;48.482;2.332;2023-02-28T09:15:37;6.50;4.00;1.50
68841;PMS5003;55849;48.482;2.332;2023-02-28T09:18:39;6.25;3.75;3.75
68841;PMS5003;55849;48.482;2.332;2023-02-28T09:21:41;4.50;4.00;3.00
68841;PMS5003;55849;48.482;2.332;2023-02-28T09:24:43;6.75;4.50;3.00
68841;PMS5003;55849;48.482;2.332;2023-02-28T09:27:46;4.50;4.00;2.50
68841;PMS5003;55849;48.482;2.332;2023-02-28T09:30:49;9.25;5.50;3.50
68841;PMS5003;55849;48.482;2.332;2023-02-28T09:33:52;5.00;5.00;3.00
68841;PMS5003;55849;48.482;2.332;2023-02-28T09:36:55;11.00;3.75;3.00
68841;PMS5003;55849;48.482;2.332;2023-02-28T09:39:57;6.00;3.00;3.00
68841;PMS5003;55849;48.482;2.332;2023-02-28T09:43:00;7.75;3.25;3.00
68841;PMS5003;55849;48.482;2.332;2023-02-28T09:46:05;6.25;6.25;4.00
68841;PMS5003;55849;48.482;2.332;2023-02-28T09:49:13;3.25;1.50;1.00
68841;PMS5003;55849;48.482;2.332;2023-02-28T09:52:18;8.50;8.50;5.50
68841;PMS5003;55849;48.482;2.332;2023-02-28T09:55:22;7.00;5.00;3.50
68841;PMS5003;55849;48.482;2.332;2023-02-28T09:58:33;2.50;2.50;1.50
68841;PMS5003;55849;48.482;2.332;2023-02-28T10:01:42;4.25;3.25;1.00
68841;PMS5003;55849;48.482;2.332;2023-02-28T10:04:53;4.50;4.25;2.00
68841;PMS5003;55849;48.482;2.332;2023-02-28T10:08:03;3.75;3.75;3.25
68841;PMS5003;55849;48.482;2.332;2023-02-28T10:11:12;18.00;9.00;6.00
68841;PMS5003;55849;48.482;2.332;2023-02-28T10:14:19;8.50;7.00;3.75
68841;PMS5003;55849;48.482;2.332;2023-02-28T10:17:23;9.50;6.00;3.00
68841;PMS5003;55849;48.482;2.332;2023-02-28T10:20:39;5.75;4.00;3.00
68841;PMS5003;55849;48.482;2.332;2023-02-28T10:23:43;1.00;1.00;1.00
68841;PMS5003;55849;48.482;2.332;2023-02-28T10:26:47;6.00;6.00;3.75
68841;PMS5003;55849;48.482;2.332;2023-02-28T10:29:53;4.00;4.00;3.50
68841;PMS5003;55849;48.482;2.332;2023-02-28T10:32:57;5.00;1.00;1.00
68841;PMS5003;55849;48.482;2.332;2023-02-28T10:35:58;4.00;4.00;1.50
68841;PMS5003;55849;48.482;2.332;2023-02-28T10:39:01;3.00;3.00;1.00
68841;PMS5003;55849;48.482;2.332;2023-02-28T10:42:02;4.00;4.00;3.00
68841;PMS5003;55849;48.482;2.332;2023-02-28T10:45:09;2.50;2.50;1.50
68841;PMS5003;55849;48.482;2.332;2023-02-28T10:48:26;1.00;0.75;0.00
68841;PMS5003;55849;48.482;2.332;2023-02-28T10:51:34;3.00;3.00;1.50
68841;PMS5003;55849;48.482;2.332;2023-02-28T10:54:38;4.75;4.00;3.00
68841;PMS5003;55849;48.482;2.332;2023-02-28T10:57:40;4.50;3.50;3.00
68841;PMS5003;55849;48.482;2.332;2023-02-28T11:00:43;0.00;0.00;0.00
68841;PMS5003;55849;48.482;2.332;2023-02-28T11:03:45;4.00;3.75;3.00
68841;PMS5003;55849;48.482;2.332;2023-02-28T11:06:47;3.00;1.00;1.00
68841;PMS5003;55849;48.482;2.332;2023-02-28T11:09:57;3.00;2.50;1.00
68841;PMS5003;55849;48.482;2.332;2023-02-28T11:12:59;7.00;4.50;3.00
68841;PMS5003;55849;48.482;2.332;2023-02-28T11:16:04;5.25;3.00;2.50
68841;PMS5003;55849;48.482;2.332;2023-02-28T11:19:15;6.00;3.50;3.00
68841;PMS5003;55849;48.482;2.332;2023-02-28T11:22:22;3.75;3.75;1.00
68841;PMS5003;55849;48.482;2.332;2023-02-28T11:25:28;2.25;2.25;2.00
68841;PMS5003;55849;48.482;2.332;2023-02-28T11:28:34;3.75;1.00;1.00
68841;PMS5003;55849;48.482;2.332;2023-02-28T11:31:38;3.00;3.00;1.00
68841;PMS5003;55849;48.482;2.332;2023-02-28T11:34:40;6.50;2.50;0.75
68841;PMS5003;55849;48.482;2.332;2023-02-28T11:37:42;6.00;4.00;1.00
68841;PMS5003;55849;48.482;2.332;2023-02-28T11:40:46;6.00;4.00;3.00
68841;PMS5003;55849;48.482;2.332;2023-02-28T11:43:58;7.00;4.50;3.25
68841;PMS5003;55849;48.482;2.332;2023-02-28T11:47:11;6.00;4.00;3.25
68841;PMS5003;55849;48.482;2.332;2023-02-28T11:50:21;3.25;1.00;1.00
68841;PMS5003;55849;48.482;2.332;2023-02-28T11:53:36;3.00;3.00;1.00
68841;PMS5003;55849;48.482;2.332;2023-02-28T11:56:49;3.25;3.25;3.00
68841;PMS5003;55849;48.482;2.332;2023-02-28T11:59:56;5.00;3.00;1.00
68841;PMS5003;55849;48.482;2.332;2023-02-28T12:03:07;5.00;3.50;2.50
68841;PMS5003;55849;48.482;2.332;2023-02-28T12:06:25;4.00;4.00;1.00
68841;PMS5003;55849;48.482;2.332;2023-02-28T12:09:35;3.75;3.75;3.00
68841;PMS5003;55849;48.482;2.332;2023-02-28T12:12:46;6.00;3.25;3.00
68841;PMS5003;55849;48.482;2.332;2023-02-28T12:19:26;4.00;4.00;3.25
68841;PMS5003;55849;48.482;2.332;2023-02-28T12:22:37;3.50;3.00;1.00
68841;PMS5003;55849;48.482;2.332;2023-02-28T12:25:50;3.75;3.00;1.00
68841;PMS5003;55849;48.482;2.332;2023-02-28T12:29:01;3.25;3.25;1.00
68841;PMS5003;55849;48.482;2.332;2023-02-28T12:32:09;4.00;4.00;3.00
68841;PMS5003;55849;48.482;2.332;2023-02-28T12:35:16;3.00;3.00;1.50
68841;PMS5003;55849;48.482;2.332;2023-02-28T12:38:23;4.00;3.00;1.00
68841;PMS5003;55849;48.482;2.332;2023-02-28T12:41:31;3.75;3.75;2.50
68841;PMS5003;55849;48.482;2.332;2023-02-28T12:44:39;3.25;3.00;2.50
68841;PMS5003;55849;48.482;2.332;2023-02-28T12:47:46;3.00;3.00;3.00
68841;PMS5003;55849;48.482;2.332;2023-02-28T12:50:53;10.50;6.25;4.00
68841;PMS5003;55849;48.482;2.332;2023-02-28T12:54:00;6.00;3.75;3.00
68841;PMS5003;55849;48.482;2.332;2023-02-28T12:57:10;4.50;4.50;4.00
68841;PMS5003;55849;48.482;2.332;2023-02-28T13:00:19;3.75;3.25;1.50
68841;PMS5003;55849;48.482;2.332;2023-02-28T13:03:30;1.75;1.50;1.00
68841;PMS5003;55849;48.482;2.332;2023-02-28T13:06:52;4.00;4.00;3.25
68841;PMS5003;55849;48.482;2.332;2023-02-28T13:10:14;5.00;3.50;2.50
68841;PMS5003;55849;48.482;2.332;2023-02-28T13:13:19;5.50;4.50;3.25
68841;PMS5003;55849;48.482;2.332;2023-02-28T13:16:22;3.00;3.00;2.50
68841;PMS5003;55849;48.482;2.332;2023-02-28T13:19:25;4.75;3.50;3.00
68841;PMS5003;55849;48.482;2.332;2023-02-28T13:22:40;3.00;3.00;2.00
68841;PMS5003;55849;48.482;2.332;2023-02-28T13:25:52;7.00;6.00;3.00
68841;PMS5003;55849;48.482;2.332;2023-02-28T13:28:58;4.50;3.25;1.50
68841;PMS5003;55849;48.482;2.332;2023-02-28T13:35:34;5.50;5.50;3.00
68841;PMS5003;55849;48.482;2.332;2023-02-28T13:38:40;6.00;6.00;3.50
68841;PMS5003;55849;48.482;2.332;2023-02-28T13:41:46;3.75;3.75;3.00
68841;PMS5003;55849;48.482;2.332;2023-02-28T13:48:23;5.50;5.50;4.00
68841;PMS5003;55849;48.482;2.332;2023-02-28T13:51:38;7.50;6.00;4.00
68841;PMS5003;55849;48.482;2.332;2023-02-28T13:54:48;4.75;4.75;3.00
68841;PMS5003;55849;48.482;2.332;2023-02-28T13:58:21;6.00;6.00;4.00
68841;PMS5003;55849;48.482;2.332;2023-02-28T14:01:37;7.50;6.00;4.00
68841;PMS5003;55849;48.482;2.332;2023-02-28T14:04:57;4.00;4.00;3.75
68841;PMS5003;55849;48.482;2.332;2023-02-28T14:08:04;7.25;7.25;5.50
68841;PMS5003;55849;48.482;2.332;2023-02-28T14:11:25;9.00;4.00;3.00
68841;PMS5003;55849;48.482;2.332;2023-02-28T14:14:53;6.50;4.00;3.00
68841;PMS5003;55849;48.482;2.332;2023-02-28T14:17:56;11.00;11.00;7.00
68841;PMS5003;55849;48.482;2.332;2023-02-28T14:24:29;8.25;6.00;4.00
68841;PMS5003;55849;48.482;2.332;2023-02-28T14:27:52;6.75;5.00;4.00
68841;PMS5003;55849;48.482;2.332;2023-02-28T14:31:05;6.75;6.75;4.00
68841;PMS5003;55849;48.482;2.332;2023-02-28T14:34:20;9.75;7.00;4.50
68841;PMS5003;55849;48.482;2.332;2023-02-28T14:37:33;8.50;6.50;4.00
68841;PMS5003;55849;48.482;2.332;2023-02-28T14:40:41;13.75;10.75;8.00
68841;PMS5003;55849;48.482;2.332;2023-02-28T14:43:49;9.75;9.75;6.25
68841;PMS5003;55849;48.482;2.332;2023-02-28T14:46:52;13.00;9.75;7.00
68841;PMS5003;55849;48.482;2.332;2023-02-28T14:49:55;10.25;9.50;7.00
68841;PMS5003;55849;48.482;2.332;2023-02-28T14:52:58;16.00;13.00;10.00
68841;PMS5003;55849;48.482;2.332;2023-02-28T14:56:00;10.75;10.00;8.00
68841;PMS5003;55849;48.482;2.332;2023-02-28T14:59:03;13.00;12.00;8.50
68841;PMS5003;55849;48.482;2.332;2023-02-28T15:02:14;12.25;10.75;7.00
68841;PMS5003;55849;48.482;2.332;2023-02-28T15:05:23;15.75;9.00;6.25
68841;PMS5003;55849;48.482;2.332;2023-02-28T15:08:27;14.50;12.00;9.00
68841;PMS5003;55849;48.482;2.332;2023-02-28T15:11:29;8.50;6.75;6.00
68841;PMS5003;55849;48.482;2.332;2023-02-28T15:14:32;11.50;11.00;7.75
68841;PMS5003;55849;48.482;2.332;2023-02-28T15:17:38;7.00;7.00;6.25
68841;PMS5003;55849;48.482;2.332;2023-02-28T15:20:40;8.00;8.00;6.00
68841;PMS5003;55849;48.482;2.332;2023-02-28T15:23:45;7.75;7.75;5.50
68841;PMS5003;55849;48.482;2.332;2023-02-28T15:26:51;8.50;7.00;4.00
68841;PMS5003;55849;48.482;2.332;2023-02-28T15:29:58;15.00;11.75;8.50
68841;PMS5003;55849;48.482;2.332;2023-02-28T15:33:03;4.50;4.00;3.50
68841;PMS5003;55849;48.482;2.332;2023-02-28T15:36:18;7.25;7.25;6.00
68841;PMS5003;55849;48.482;2.332;2023-02-28T15:39:22;9.00;9.00;6.25
68841;PMS5003;55849;48.482;2.332;2023-02-28T15:42:28;8.00;5.25;4.50
68841;PMS5003;55849;48.482;2.332;2023-02-28T15:45:36;7.50;5.50;4.50
68841;PMS5003;55849;48.482;2.332;2023-02-28T15:48:42;9.25;7.00;6.00
68841;PMS5003;55849;48.482;2.332;2023-02-28T15:51:46;6.50;4.50;4.00
68841;PMS5003;55849;48.482;2.332;2023-02-28T15:54:50;8.50;6.25;4.00
68841;PMS5003;55849;48.482;2.332;2023-02-28T15:57:53;6.25;6.25;3.50
68841;PMS5003;55849;48.482;2.332;2023-02-28T16:01:06;5.50;5.50;3.75
68841;PMS5003;55849;48.482;2.332;2023-02-28T16:04:13;5.50;4.00;3.75
68841;PMS5003;55849;48.482;2.332;2023-02-28T16:07:16;3.25;1.00;0.00
68841;PMS5003;55849;48.482;2.332;2023-02-28T16:10:18;9.25;6.75;4.00
68841;PMS5003;55849;48.482;2.332;2023-02-28T16:13:19;8.00;3.00;3.00
68841;PMS5003;55849;48.482;2.332;2023-02-28T16:16:23;6.50;6.50;4.50
68841;PMS5003;55849;48.482;2.332;2023-02-28T16:19:25;5.50;4.00;3.75
68841;PMS5003;55849;48.482;2.332;2023-02-28T16:22:27;5.00;5.00;3.75
68841;PMS5003;55849;48.482;2.332;2023-02-28T16:25:33;6.00;6.00;3.50
68841;PMS5003;55849;48.482;2.332;2023-02-28T16:28:37;8.00;6.75;4.00
68841;PMS5003;55849;48.482;2.332;2023-02-28T16:31:41;3.00;3.00;1.00
68841;PMS5003;55849;48.482;2.332;2023-02-28T16:34:43;5.00;5.00;3.25
68841;PMS5003;55849;48.482;2.332;2023-02-28T16:37:45;4.50;4.00;4.00
68841;PMS5003;55849;48.482;2.332;2023-02-28T16:40:47;7.00;6.00;4.00
68841;PMS5003;55849;48.482;2.332;2023-02-28T16:43:51;4.00;4.00;3.00
68841;PMS5003;55849;48.482;2.332;2023-02-28T16:46:55;3.75;3.75;3.00
68841;PMS5003;55849;48.482;2.332;2023-02-28T16:49:57;6.00;4.00;3.00
68841;PMS5003;55849;48.482;2.332;2023-02-28T16:52:59;5.25;4.00;2.00
68841;PMS5003;55849;48.482;2.332;2023-02-28T16:56:00;6.00;6.00;4.00
68841;PMS5003;55849;48.482;2.332;2023-02-28T16:59:02;4.50;4.50;4.00
68841;PMS5003;55849;48.482;2.332;2023-02-28T17:02:08;4.00;4.00;3.00
68841;PMS5003;55849;48.482;2.332;2023-02-28T17:05:13;4.00;4.00;3.75
68841;PMS5003;55849;48.482;2.332;2023-02-28T17:08:15;4.00;4.00;3.50
68841;PMS5003;55849;48.482;2.332;2023-02-28T17:11:17;6.50;6.50;4.00
68841;PMS5003;55849;48.482;2.332;2023-02-28T17:14:19;3.00;3.00;3.00
68841;PMS5003;55849;48.482;2.332;2023-02-28T17:17:22;5.75;4.00;2.00
68841;PMS5003;55849;48.482;2.332;2023-02-28T17:20:24;5.00;5.00;4.00
68841;PMS5003;55849;48.482;2.332;2023-02-28T17:23:26;6.00;6.00;4.00
68841;PMS5003;55849;48.482;2.332;2023-02-28T17:26:28;8.50;6.50;5.00
68841;PMS5003;55849;48.482;2.332;2023-02-28T17:29:29;3.75;3.75;3.00
68841;PMS5003;55849;48.482;2.332;2023-02-28T17:32:32;4.00;4.00;3.00
68841;PMS5003;55849;48.482;2.332;2023-02-28T17:35:34;9.00;7.50;4.00
68841;PMS5003;55849;48.482;2.332;2023-02-28T17:38:35;6.75;6.00;3.25
68841;PMS5003;55849;48.482;2.332;2023-02-28T17:41:37;6.00;6.00;3.00
68841;PMS5003;55849;48.482;2.332;2023-02-28T17:44:38;6.50;6.50;5.00
68841;PMS5003;55849;48.482;2.332;2023-02-28T17:47:42;9.75;7.25;6.00
68841;PMS5003;55849;48.482;2.332;2023-02-28T17:50:46;4.00;4.00;3.25
68841;PMS5003;55849;48.482;2.332;2023-02-28T17:53:48;7.50;4.00;3.25
68841;PMS5003;55849;48.482;2.332;2023-02-28T17:56:50;7.00;3.75;3.00
68841;PMS5003;55849;48.482;2.332;2023-02-28T17:59:51;9.50;6.75;6.00
68841;PMS5003;55849;48.482;2.332;2023-02-28T18:02:54;9.00;6.25;5.50
68841;PMS5003;55849;48.482;2.332;2023-02-28T18:05:56;9.25;6.00;4.00
68841;PMS5003;55849;48.482;2.332;2023-02-28T18:08:57;5.00;5.00;4.00
68841;PMS5003;55849;48.482;2.332;2023-02-28T18:11:59;5.50;5.50;4.00
68841;PMS5003;55849;48.482;2.332;2023-02-28T18:15:01;6.25;6.25;3.25
68841;PMS5003;55849;48.482;2.332;2023-02-28T18:18:04;11.50;8.50;5.50
68841;PMS5003;55849;48.482;2.332;2023-02-28T18:21:07;12.00;7.00;6.75